Time;durP1;ratioP1;P1;durP2;ratioP2;P2;SDS_P1;SDS_P2;PMS_P1;PMS_P2;Temp;Humidity;BMP_temperature;BMP_pressure;BME280_temperature;BME280_humidity;BME280_pressure;Samples;Min_cycle;Max_cycle;Signal;HPM_P1;HPM_P2
2022/10/10 00:00:45;;;;;;;;;;;;;;;8.15;49.09;101235.81;4908457;28;97905;-68
2022/10/10 00:03:12;;;;;;;;;;;;;;;8.13;49.12;101237.91;4901185;28;98051;-65
2022/10/10 00:05:41;;;;;;;;;;;;;;;8.09;49.24;101240.22;4915173;28;98420;-68
2022/10/10 00:08:08;;;;;;;;;;;;;;;8.06;48.81;101237.22;4900345;28;97993;-64
2022/10/10 00:10:34;;;;;;;;;;;;;;;8.02;49.07;101228.00;4932674;28;98057;-64
2022/10/10 00:13:01;;;;;;;;;;;;;;;7.98;48.94;101230.31;4904158;28;98717;-64
2022/10/10 00:15:29;;;;;;;;;;;;;;;7.93;48.94;101224.81;4907007;28;97878;-68
2022/10/10 00:17:57;;;;;;;;;;;;;;;7.90;49.22;101219.94;4916889;28;99685;-68
2022/10/10 00:20:23;;;;;;;;;;;;;;;7.85;49.20;101217.09;4903639;28;97991;-64
2022/10/10 00:22:49;;;;;;;;;;;;;;;7.82;49.20;101221.06;4925422;28;98547;-64
2022/10/10 00:25:17;;;;;;;;;;;;;;;7.79;49.26;101226.91;4934071;28;97856;-68
2022/10/10 00:27:43;;;;;;;;;;;;;;;7.76;49.11;101216.63;4931948;28;97875;-64
2022/10/10 00:30:10;;;;;;;;;;;;;;;7.73;49.00;101210.88;4903873;28;97968;-64
2022/10/10 00:32:36;;;;;;;;;;;;;;;7.67;48.98;101217.19;4926952;28;97984;-64
2022/10/10 00:35:03;;;;;;;;;;;;;;;7.61;49.28;101213.53;4925287;28;98435;-64
2022/10/10 00:37:30;;;;;;;;;;;;;;;7.56;49.11;101219.59;4913342;28;99977;-67
2022/10/10 00:39:57;;;;;;;;;;;;;;;7.53;49.13;101216.56;4930354;28;98019;-68
2022/10/10 00:42:23;;;;;;;;;;;;;;;7.49;49.35;101218.06;4922445;28;98246;-64
2022/10/10 00:45:26;;;;;;;;;;;;;;;7.42;49.07;101210.09;4910793;28;108553;-64
2022/10/10 00:47:56;;;;;;;;;;;;;;;7.36;49.36;101214.53;4951813;28;98188;-64
2022/10/10 00:50:22;;;;;;;;;;;;;;;7.32;49.07;101207.16;4928096;28;98106;-64
2022/10/10 00:52:48;;;;;;;;;;;;;;;7.28;49.31;101211.34;4927094;28;99411;-66
2022/10/10 00:55:15;;;;;;;;;;;;;;;7.24;48.91;101208.28;4925015;28;98365;-68
2022/10/10 00:57:42;;;;;;;;;;;;;;;7.20;49.06;101215.16;4911008;28;97879;-64
2022/10/10 01:00:09;;;;;;;;;;;;;;;7.18;49.52;101219.91;4925320;28;98120;-64
2022/10/10 01:02:36;;;;;;;;;;;;;;;7.13;49.14;101212.56;4928671;28;98157;-64
2022/10/10 01:05:02;;;;;;;;;;;;;;;7.10;49.05;101207.63;4916428;28;97884;-64
2022/10/10 01:07:29;;;;;;;;;;;;;;;7.08;49.13;101212.44;4933058;28;112540;-64
2022/10/10 01:09:58;;;;;;;;;;;;;;;7.05;49.32;101215.56;4914517;28;97905;-64
2022/10/10 01:12:45;;;;;;;;;;;;;;;7.01;49.21;101208.19;4913292;28;101788;-68
2022/10/10 01:15:49;;;;;;;;;;;;;;;6.97;49.43;101205.13;4954766;28;100455;-64
2022/10/10 01:18:22;;;;;;;;;;;;;;;6.92;49.50;101210.38;4942635;28;98138;-65
2022/10/10 01:21:05;;;;;;;;;;;;;;;6.86;49.35;101211.25;4912740;28;98317;-68
2022/10/10 01:23:40;;;;;;;;;;;;;;;6.79;49.44;101203.28;4918290;28;98039;-64
2022/10/10 01:26:46;;;;;;;;;;;;;;;6.74;49.04;101203.13;4933844;28;98142;-64
2022/10/10 01:29:28;;;;;;;;;;;;;;;6.67;49.30;101194.34;4910514;28;98026;-64
2022/10/10 01:31:59;;;;;;;;;;;;;;;6.63;49.66;101195.84;4941037;28;97983;-64
2022/10/10 01:34:44;;;;;;;;;;;;;;;6.61;49.32;101187.22;4919223;28;99093;-68
2022/10/10 01:37:29;;;;;;;;;;;;;;;6.58;49.42;101191.16;4936383;28;97819;-68
2022/10/10 01:40:07;;;;;;;;;;;;;;;6.55;49.25;101188.09;4914815;28;98311;-67
2022/10/10 01:42:51;;;;;;;;;;;;;;;6.50;49.43;101178.06;4914933;28;98180;-67
2022/10/10 01:45:17;;;;;;;;;;;;;;;6.45;49.27;101171.75;4918691;28;98129;-67
2022/10/10 01:47:45;;;;;;;;;;;;;;;6.41;49.46;101170.56;4908825;28;100044;-68
2022/10/10 01:50:14;;;;;;;;;;;;;;;6.37;49.28;101170.19;4908913;28;98186;-64
2022/10/10 01:52:54;;;;;;;;;;;;;;;6.34;49.47;101170.63;4908038;28;98204;-68
2022/10/10 01:55:24;;;;;;;;;;;;;;;6.32;49.14;101170.00;4925575;28;98262;-64
2022/10/10 01:58:02;;;;;;;;;;;;;;;6.31;49.24;101163.84;4915665;28;97944;-64
2022/10/10 02:00:30;;;;;;;;;;;;;;;6.28;49.09;101163.47;4954863;28;97893;-68
2022/10/10 02:03:12;;;;;;;;;;;;;;;6.26;49.11;101157.53;4922344;28;97848;-68
2022/10/10 02:05:41;;;;;;;;;;;;;;;6.23;49.15;101155.28;4919451;28;98067;-64
2022/10/10 02:08:13;;;;;;;;;;;;;;;6.21;49.25;101158.19;4920073;28;98983;-68
2022/10/10 02:10:45;;;;;;;;;;;;;;;6.18;49.63;101157.81;4957143;28;98323;-64
2022/10/10 02:13:15;;;;;;;;;;;;;;;6.17;49.09;101148.13;4925396;28;98032;-68
2022/10/10 02:15:49;;;;;;;;;;;;;;;6.15;49.45;101140.34;4919727;28;97999;-68
2022/10/10 02:18:16;;;;;;;;;;;;;;;6.18;49.73;101152.47;4912577;28;103193;-68
2022/10/10 02:20:44;;;;;;;;;;;;;;;6.16;49.51;101139.28;4916629;28;97941;-68
2022/10/10 02:23:13;;;;;;;;;;;;;;;6.13;49.56;101129.84;4917803;28;98023;-68
2022/10/10 02:25:41;;;;;;;;;;;;;;;6.12;49.55;101138.09;4940635;28;98450;-68
2022/10/10 02:28:10;;;;;;;;;;;;;;;6.10;49.21;101134.84;4912490;28;97936;-68
2022/10/10 02:30:39;;;;;;;;;;;;;;;6.10;49.58;101126.81;4957261;28;98206;-64
2022/10/10 02:33:09;;;;;;;;;;;;;;;6.07;49.64;101122.69;4918833;28;98055;-68
2022/10/10 02:35:37;;;;;;;;;;;;;;;6.08;49.19;101124.31;4906598;28;98117;-64
2022/10/10 02:38:04;;;;;;;;;;;;;;;6.07;49.11;101127.25;4910457;28;97895;-64
2022/10/10 02:40:31;;;;;;;;;;;;;;;6.05;49.28;101122.13;4928360;28;98055;-68
2022/10/10 02:43:00;;;;;;;;;;;;;;;6.04;49.58;101115.09;4931460;28;98265;-64
2022/10/10 02:45:28;;;;;;;;;;;;;;;6.04;49.13;101116.97;4924475;28;99771;-68
2022/10/10 02:47:54;;;;;;;;;;;;;;;6.02;49.83;101122.56;4936798;28;98213;-64
2022/10/10 02:50:23;;;;;;;;;;;;;;;6.03;49.43;101118.00;4906190;28;97993;-67
2022/10/10 02:52:49;;;;;;;;;;;;;;;6.02;49.48;101116.38;4916998;28;98284;-64
2022/10/10 02:55:15;;;;;;;;;;;;;;;6.02;49.70;101116.38;4911933;28;99708;-64
2022/10/10 02:57:42;;;;;;;;;;;;;;;6.01;49.47;101112.03;4915691;28;97995;-68
2022/10/10 03:00:11;;;;;;;;;;;;;;;6.00;49.30;101110.41;4907158;28;98089;-68
2022/10/10 03:02:40;;;;;;;;;;;;;;;6.01;49.73;101109.38;4928798;28;97875;-68
2022/10/10 03:05:19;;;;;;;;;;;;;;;6.02;49.48;101100.31;5013211;27;98067;-63
2022/10/10 03:07:45;;;;;;;;;;;;;;;6.02;49.56;101100.31;5007454;27;97851;-63
2022/10/10 03:10:11;;;;;;;;;;;;;;;6.03;49.02;101102.75;4990034;27;98459;-63
2022/10/10 03:12:38;;;;;;;;;;;;;;;6.04;49.53;101103.56;4982494;27;98124;-67
2022/10/10 03:15:05;;;;;;;;;;;;;;;6.05;49.58;101099.84;4987392;27;99119;-62
2022/10/10 03:17:31;;;;;;;;;;;;;;;6.05;49.03;101091.81;4984801;27;97903;-63
2022/10/10 03:19:57;;;;;;;;;;;;;;;6.07;49.57;101095.94;4965522;27;116815;-63
2022/10/10 03:22:23;;;;;;;;;;;;;;;6.05;49.39;101083.78;4986858;27;98231;-67
2022/10/10 03:24:49;;;;;;;;;;;;;;;6.08;49.87;101084.16;4964562;27;101149;-67
2022/10/10 03:27:16;;;;;;;;;;;;;;;6.08;49.41;101086.84;4989387;27;98143;-67
2022/10/10 03:29:42;;;;;;;;;;;;;;;6.09;49.08;101085.00;4973142;27;97969;-63
2022/10/10 03:32:08;;;;;;;;;;;;;;;6.12;49.63;101081.88;4970716;27;98120;-67
2022/10/10 03:34:34;;;;;;;;;;;;;;;6.14;49.10;101077.13;4976322;27;98201;-67
2022/10/10 03:37:00;;;;;;;;;;;;;;;6.13;49.69;101076.31;4982600;27;97872;-67
2022/10/10 03:39:27;;;;;;;;;;;;;;;6.15;49.73;101073.41;4968515;27;97977;-66
2022/10/10 03:41:53;;;;;;;;;;;;;;;6.14;49.18;101077.94;4987975;27;98293;-63
2022/10/10 03:44:19;;;;;;;;;;;;;;;6.14;49.63;101067.22;4977443;27;98092;-63
2022/10/10 03:46:45;;;;;;;;;;;;;;;6.16;49.27;101058.97;4966764;27;98602;-63
2022/10/10 03:49:11;;;;;;;;;;;;;;;6.17;49.61;101065.13;4974146;27;98499;-63
2022/10/10 03:51:37;;;;;;;;;;;;;;;6.19;49.43;101052.34;4973954;27;98149;-63
2022/10/10 03:54:04;;;;;;;;;;;;;;;6.20;49.20;101045.94;4958548;27;99059;-63
2022/10/10 03:56:30;;;;;;;;;;;;;;;6.21;49.28;101044.91;4981392;27;98039;-63
2022/10/10 03:58:59;;;;;;;;;;;;;;;6.23;49.23;101042.84;4950434;27;97971;-63
2022/10/10 04:01:28;;;;;;;;;;;;;;;6.25;49.65;101038.91;4972954;27;99800;-63
2022/10/10 04:03:57;;;;;;;;;;;;;;;6.27;49.25;101038.66;4972272;27;98042;-67
2022/10/10 04:06:23;;;;;;;;;;;;;;;6.30;49.17;101031.00;4988429;27;98123;-63
2022/10/10 04:08:50;;;;;;;;;;;;;;;6.32;49.31;101028.09;4964232;27;100327;-67
2022/10/10 04:11:18;;;;;;;;;;;;;;;6.35;49.36;101025.78;4988315;27;98490;-67
2022/10/10 04:13:45;;;;;;;;;;;;;;;6.37;49.53;101022.91;4963583;27;97820;-67
2022/10/10 04:16:10;;;;;;;;;;;;;;;6.39;49.40;101020.78;4953602;27;97950;-63
2022/10/10 04:18:37;;;;;;;;;;;;;;;6.44;49.68;101020.91;4957324;27;127846;-67
2022/10/10 04:21:04;;;;;;;;;;;;;;;6.53;49.49;101024.13;4957151;28;98159;-63
2022/10/10 04:23:30;;;;;;;;;;;;;;;6.61;49.53;101019.25;4957682;27;98415;-67
2022/10/10 04:25:56;;;;;;;;;;;;;;;6.68;49.61;101015.66;4956874;27;98321;-67
2022/10/10 04:28:22;;;;;;;;;;;;;;;6.75;49.45;101002.97;4954225;27;100027;-68
2022/10/10 04:30:49;;;;;;;;;;;;;;;6.82;49.44;101007.19;4954944;27;97880;-63
2022/10/10 04:33:15;;;;;;;;;;;;;;;6.88;49.47;100994.75;4949060;27;98869;-67
2022/10/10 04:35:42;;;;;;;;;;;;;;;6.92;49.63;100995.94;4966660;27;98063;-67
2022/10/10 04:38:10;;;;;;;;;;;;;;;6.96;49.70;100989.06;4963581;28;98617;-67
2022/10/10 04:40:36;;;;;;;;;;;;;;;6.99;49.87;100988.59;4956840;27;97839;-68
2022/10/10 04:43:04;;;;;;;;;;;;;;;7.02;49.55;100988.13;4968062;27;99015;-67
2022/10/10 04:45:32;;;;;;;;;;;;;;;7.04;49.68;100985.22;4981263;27;99095;-67
2022/10/10 04:48:03;;;;;;;;;;;;;;;7.07;49.82;100971.34;4978426;27;98103;-67
2022/10/10 04:50:31;;;;;;;;;;;;;;;7.07;49.58;100969.50;4958131;27;97914;-67
2022/10/10 04:52:57;;;;;;;;;;;;;;;7.11;49.60;100968.00;4947566;27;97981;-63
2022/10/10 04:55:25;;;;;;;;;;;;;;;7.13;49.54;100963.19;4951886;27;97937;-63
2022/10/10 04:57:52;;;;;;;;;;;;;;;7.14;49.61;100959.47;4956704;27;98241;-67
2022/10/10 05:00:22;;;;;;;;;;;;;;;7.16;49.91;100969.16;4984608;28;98083;-64
2022/10/10 05:02:49;;;;;;;;;;;;;;;7.15;49.58;100954.91;4959144;28;98119;-67
2022/10/10 05:05:17;;;;;;;;;;;;;;;7.16;49.65;100951.19;4945934;27;98718;-67
2022/10/10 05:07:43;;;;;;;;;;;;;;;7.19;49.90;100963.31;4958261;27;98463;-67
2022/10/10 05:10:11;;;;;;;;;;;;;;;7.20;49.68;100959.59;4962792;27;98983;-67
2022/10/10 05:12:39;;;;;;;;;;;;;;;7.20;49.88;100957.72;4952070;27;98296;-67
2022/10/10 05:15:07;;;;;;;;;;;;;;;7.23;49.65;100957.28;4949780;27;98301;-67
2022/10/10 05:17:33;;;;;;;;;;;;;;;7.25;49.71;100952.47;4945005;27;98890;-67
2022/10/10 05:20:01;;;;;;;;;;;;;;;7.25;50.10;100946.31;4955772;27;98418;-67
2022/10/10 05:22:30;;;;;;;;;;;;;;;7.27;49.74;100953.06;4960421;27;97796;-68
2022/10/10 05:24:58;;;;;;;;;;;;;;;7.28;49.80;100948.53;4971426;27;98197;-68
2022/10/10 05:27:25;;;;;;;;;;;;;;;7.29;49.76;100952.84;4947408;27;98077;-67
2022/10/10 05:29:51;;;;;;;;;;;;;;;7.30;49.58;100946.41;4977334;27;98380;-67
2022/10/10 05:32:18;;;;;;;;;;;;;;;7.29;49.55;100942.91;4959032;28;98168;-63
2022/10/10 05:34:44;;;;;;;;;;;;;;;7.29;49.74;100940.22;4950331;27;98045;-63
2022/10/10 05:37:11;;;;;;;;;;;;;;;7.29;49.88;100931.38;4966200;27;97875;-63
2022/10/10 05:39:37;;;;;;;;;;;;;;;7.29;49.58;100934.06;4955995;27;98161;-63
2022/10/10 05:42:03;;;;;;;;;;;;;;;7.28;49.92;100935.94;4959976;27;98277;-63
2022/10/10 05:44:35;;;;;;;;;;;;;;;7.29;49.64;100931.38;4960993;27;98377;-63
2022/10/10 05:47:03;;;;;;;;;;;;;;;7.28;49.17;100933.25;4996084;27;98271;-63
2022/10/10 05:49:30;;;;;;;;;;;;;;;7.29;49.68;100926.00;4953668;27;98837;-63
2022/10/10 05:51:56;;;;;;;;;;;;;;;7.30;49.63;100928.44;4985193;27;98703;-63
2022/10/10 05:54:22;;;;;;;;;;;;;;;7.30;49.48;100923.09;4980581;27;98398;-63
2022/10/10 05:56:49;;;;;;;;;;;;;;;7.31;49.57;100923.91;4973171;27;98332;-63
2022/10/10 05:59:15;;;;;;;;;;;;;;;7.31;49.63;100919.38;4951839;27;98309;-63
2022/10/10 06:01:41;;;;;;;;;;;;;;;7.31;49.44;100922.06;4967509;27;98270;-63
2022/10/10 06:04:07;;;;;;;;;;;;;;;7.31;49.75;100921.22;4961036;27;98320;-63
2022/10/10 06:06:33;;;;;;;;;;;;;;;7.32;49.62;100917.50;4962120;27;98051;-66
2022/10/10 06:09:00;;;;;;;;;;;;;;;7.33;49.50;100924.50;4959002;27;98707;-65
2022/10/10 06:11:26;;;;;;;;;;;;;;;7.34;49.30;100923.44;4949242;27;98312;-66
2022/10/10 06:13:56;;;;;;;;;;;;;;;7.35;49.33;100919.72;4972091;27;98997;-63
2022/10/10 06:16:23;;;;;;;;;;;;;;;7.35;49.58;100917.03;4968970;27;98232;-63
2022/10/10 06:18:50;;;;;;;;;;;;;;;7.36;49.50;100919.47;4956425;27;99472;-63
2022/10/10 06:21:17;;;;;;;;;;;;;;;7.37;49.57;100915.75;4953467;27;98184;-63
2022/10/10 06:23:44;;;;;;;;;;;;;;;7.39;49.40;100910.16;4950971;27;97834;-63
2022/10/10 06:26:10;;;;;;;;;;;;;;;7.42;49.36;100911.53;4972612;27;98837;-63
2022/10/10 06:28:37;;;;;;;;;;;;;;;7.46;49.55;100918.06;4963278;27;97904;-63
2022/10/10 06:31:05;;;;;;;;;;;;;;;7.52;49.34;100912.56;4976920;27;97993;-63
2022/10/10 06:33:36;;;;;;;;;;;;;;;7.60;49.19;100922.13;4943381;28;98286;-63
2022/10/10 06:36:04;;;;;;;;;;;;;;;7.65;49.27;100916.03;4951681;27;98446;-63
2022/10/10 06:38:30;;;;;;;;;;;;;;;7.72;49.53;100911.38;4961409;27;98065;-63
2022/10/10 06:41:06;;;;;;;;;;;;;;;7.84;49.04;100907.59;4983296;28;97813;-67
2022/10/10 06:43:32;;;;;;;;;;;;;;;7.89;49.20;100909.56;4943157;27;98041;-63
2022/10/10 06:45:58;;;;;;;;;;;;;;;7.96;48.76;100912.09;4968208;27;98967;-63
2022/10/10 06:48:25;;;;;;;;;;;;;;;8.01;48.69;100921.06;4959562;27;98162;-63
2022/10/10 06:51:03;;;;;;;;;;;;;;;8.10;49.00;100921.53;4958436;27;98165;-67
2022/10/10 06:53:30;;;;;;;;;;;;;;;8.21;48.73;100914.44;4956396;27;98066;-67
2022/10/10 06:55:57;;;;;;;;;;;;;;;8.33;49.00;100924.09;4949336;27;97871;-63
2022/10/10 06:58:26;;;;;;;;;;;;;;;8.45;48.86;100920.56;4953236;27;98167;-67
2022/10/10 07:00:56;;;;;;;;;;;;;;;8.58;49.15;100918.38;4952736;27;97996;-67
2022/10/10 07:03:22;;;;;;;;;;;;;;;8.74;49.08;100915.94;4955171;27;97971;-63
2022/10/10 07:05:55;;;;;;;;;;;;;;;8.90;48.39;100912.44;4949402;27;98001;-67
2022/10/10 07:08:21;;;;;;;;;;;;;;;9.06;48.31;100917.00;4950034;27;98683;-63
2022/10/10 07:10:47;;;;;;;;;;;;;;;9.25;48.67;100912.16;4966253;27;98491;-63
2022/10/10 07:13:13;;;;;;;;;;;;;;;9.45;47.65;100922.38;4946041;28;98183;-64
2022/10/10 07:15:41;;;;;;;;;;;;;;;9.64;47.78;100914.03;4964447;27;98231;-68
2022/10/10 07:18:11;;;;;;;;;;;;;;;9.82;47.60;100911.84;4966678;27;99115;-68
2022/10/10 07:20:38;;;;;;;;;;;;;;;10.02;48.12;100921.19;4969671;27;98001;-68
2022/10/10 07:23:06;;;;;;;;;;;;;;;10.23;47.75;100922.25;4961299;27;97963;-68
2022/10/10 07:25:34;;;;;;;;;;;;;;;10.46;47.93;100921.16;4955030;27;98245;-67
2022/10/10 07:28:00;;;;;;;;;;;;;;;10.67;47.70;100912.16;4950054;27;98147;-67
2022/10/10 07:30:28;;;;;;;;;;;;;;;10.90;47.40;100910.19;4962321;27;98061;-67
2022/10/10 07:32:54;;;;;;;;;;;;;;;11.07;47.13;100908.94;4967324;27;98589;-68
2022/10/10 07:35:22;;;;;;;;;;;;;;;11.27;47.01;100907.44;4948102;27;97967;-68
2022/10/10 07:37:52;;;;;;;;;;;;;;;11.39;47.43;100912.66;4955924;27;98141;-68
2022/10/10 07:40:18;;;;;;;;;;;;;;;11.52;47.29;100904.09;4968678;27;97985;-68
2022/10/10 07:42:45;;;;;;;;;;;;;;;11.65;47.29;100902.78;4963185;27;98265;-68
2022/10/10 07:45:14;;;;;;;;;;;;;;;11.76;47.48;100907.16;4958791;27;98812;-68
2022/10/10 07:47:44;;;;;;;;;;;;;;;11.84;47.14;100904.00;4970189;27;99255;-68
2022/10/10 07:50:12;;;;;;;;;;;;;;;11.91;47.40;100907.25;4969255;27;98828;-68
2022/10/10 07:52:40;;;;;;;;;;;;;;;11.98;47.21;100909.69;4956193;27;97971;-68
2022/10/10 07:55:07;;;;;;;;;;;;;;;12.06;47.49;100903.75;4956941;27;100501;-64
2022/10/10 07:57:34;;;;;;;;;;;;;;;12.15;47.43;100906.78;4957382;27;98115;-64
2022/10/10 08:00:02;;;;;;;;;;;;;;;12.24;47.34;100905.97;4956527;27;99751;-63
2022/10/10 08:02:30;;;;;;;;;;;;;;;12.37;47.26;100904.63;4948773;28;98181;-68
2022/10/10 08:04:57;;;;;;;;;;;;;;;12.55;47.30;100900.63;4968029;27;98325;-68
2022/10/10 08:07:23;;;;;;;;;;;;;;;12.69;47.13;100890.88;4958436;27;98278;-64
2022/10/10 08:09:49;;;;;;;;;;;;;;;12.86;46.90;100896.00;4971300;28;103128;-64
2022/10/10 08:12:15;;;;;;;;;;;;;;;13.03;47.16;100895.72;4951204;28;98028;-64
2022/10/10 08:14:41;;;;;;;;;;;;;;;13.21;46.99;100897.03;4949459;27;98027;-68
2022/10/10 08:17:07;;;;;;;;;;;;;;;13.38;46.76;100897.56;4949930;27;98084;-64
2022/10/10 08:19:33;;;;;;;;;;;;;;;13.59;46.89;100903.72;4964664;27;98382;-64
2022/10/10 08:22:19;;;;;;;;;;;;;;;13.86;46.71;100897.91;4970585;27;97936;-68
2022/10/10 08:24:52;;;;;;;;;;;;;;;14.63;45.32;100897.44;4970437;27;99214;-69
2022/10/10 08:27:19;;;;;;;;;;;;;;;15.68;44.43;100893.16;4958497;27;100267;-64
2022/10/10 08:29:45;;;;;;;;;;;;;;;16.10;44.59;100881.41;4972215;27;98106;-64
2022/10/10 08:32:18;;;;;;;;;;;;;;;16.32;44.55;100888.19;4964339;27;97796;-68
2022/10/10 08:34:47;;;;;;;;;;;;;;;16.56;44.49;100890.78;4947180;27;98545;-68
2022/10/10 08:37:13;;;;;;;;;;;;;;;16.60;44.79;100894.53;4946952;27;98348;-63
2022/10/10 08:39:42;;;;;;;;;;;;;;;16.40;45.21;100882.88;4953445;27;113256;-68
2022/10/10 08:42:14;;;;;;;;;;;;;;;16.58;45.08;100894.00;4972372;27;97990;-66
2022/10/10 08:44:49;;;;;;;;;;;;;;;17.02;44.50;100890.06;4964511;28;98358;-68
2022/10/10 08:47:30;;;;;;;;;;;;;;;17.14;44.59;100884.91;4968741;27;98544;-64
2022/10/10 08:50:18;;;;;;;;;;;;;;;17.02;45.11;100892.78;4979195;27;98066;-64
2022/10/10 08:52:48;;;;;;;;;;;;;;;16.77;45.39;100891.28;4961363;27;97835;-64
2022/10/10 08:55:29;;;;;;;;;;;;;;;16.50;45.63;100890.06;4978275;27;98132;-68
2022/10/10 08:58:19;;;;;;;;;;;;;;;16.42;45.78;100886.09;4975711;27;98573;-64
2022/10/10 09:00:57;;;;;;;;;;;;;;;16.52;45.55;100879.69;4965487;27;99319;-68
2022/10/10 09:03:42;;;;;;;;;;;;;;;16.57;45.46;100879.59;4966003;27;97884;-64
2022/10/10 09:06:33;;;;;;;;;;;;;;;16.72;45.58;100881.25;4989008;27;102548;-68
2022/10/10 09:09:21;;;;;;;;;;;;;;;16.83;45.51;100880.03;4969631;28;98362;-64
2022/10/10 09:11:51;;;;;;;;;;;;;;;16.98;45.28;100867.22;4995610;27;98889;-64
2022/10/10 09:14:33;;;;;;;;;;;;;;;16.97;45.40;100866.41;4964868;27;98556;-64
2022/10/10 09:17:17;;;;;;;;;;;;;;;16.87;45.52;100867.44;4970110;27;100197;-65
2022/10/10 09:20:07;;;;;;;;;;;;;;;16.75;45.56;100877.19;4966424;27;98236;-64
2022/10/10 09:22:40;;;;;;;;;;;;;;;16.71;45.66;100870.69;4977305;27;97853;-64
2022/10/10 09:26:03;;;;;;;;;;;;;;;16.76;45.81;100868.72;4959767;27;97894;-64
2022/10/10 09:28:34;;;;;;;;;;;;;;;16.68;45.79;100863.91;4945265;28;98382;-64
2022/10/10 09:31:02;;;;;;;;;;;;;;;16.66;45.83;100866.13;4966051;28;99717;-65
2022/10/10 09:33:31;;;;;;;;;;;;;;;16.75;45.58;100866.28;4959414;27;97913;-68
2022/10/10 09:35:57;;;;;;;;;;;;;;;16.85;45.70;100860.66;4979274;27;99396;-64
2022/10/10 09:38:36;;;;;;;;;;;;;;;16.85;45.75;100857.94;4951975;27;100262;-64
2022/10/10 09:41:24;;;;;;;;;;;;;;;17.09;45.49;100863.19;4968149;27;97922;-64
2022/10/10 09:43:57;;;;;;;;;;;;;;;17.55;44.90;100856.84;4975796;27;98080;-64
2022/10/10 09:46:25;;;;;;;;;;;;;;;17.27;45.20;100856.88;4958538;27;98182;-67
2022/10/10 09:48:53;;;;;;;;;;;;;;;17.13;45.54;100853.31;4955180;27;98107;-69
2022/10/10 09:51:19;;;;;;;;;;;;;;;17.18;45.42;100851.31;4968117;27;97974;-64
2022/10/10 09:53:46;;;;;;;;;;;;;;;18.00;44.06;100854.25;4937301;27;98630;-68
2022/10/10 09:56:25;;;;;;;;;;;;;;;19.83;41.84;100835.78;4967845;27;98590;-65
2022/10/10 09:58:54;;;;;;;;;;;;;;;21.98;39.14;100840.06;4945784;28;98017;-68
2022/10/10 10:01:21;;;;;;;;;;;;;;;21.92;39.67;100846.09;4964102;27;98254;-69
2022/10/10 10:04:06;;;;;;;;;;;;;;;20.93;41.58;100843.72;4966034;27;97971;-66
2022/10/10 10:06:35;;;;;;;;;;;;;;;20.11;42.94;100835.47;4992903;27;97831;-68
2022/10/10 10:09:04;;;;;;;;;;;;;;;19.56;43.69;100839.56;4957012;28;97940;-67
2022/10/10 10:11:33;;;;;;;;;;;;;;;19.13;44.56;100839.44;4942587;27;99350;-68
2022/10/10 10:14:01;;;;;;;;;;;;;;;18.73;44.86;100841.34;4948607;28;99918;-68
2022/10/10 10:16:38;;;;;;;;;;;;;;;18.31;45.30;100844.28;4948621;27;98075;-65
2022/10/10 10:19:06;;;;;;;;;;;;;;;17.97;45.87;100850.25;4958303;27;98645;-65
2022/10/10 10:21:46;;;;;;;;;;;;;;;17.64;46.06;100844.94;4955197;27;98024;-68
2022/10/10 10:24:27;;;;;;;;;;;;;;;17.33;46.31;100835.75;4945356;27;98171;-64
2022/10/10 10:26:53;;;;;;;;;;;;;;;17.13;46.56;100847.88;4967661;27;97830;-65
2022/10/10 10:29:33;;;;;;;;;;;;;;;17.07;46.54;100846.38;4976520;27;98566;-68
2022/10/10 10:32:33;;;;;;;;;;;;;;;17.02;46.48;100843.75;4989495;27;97955;-64
2022/10/10 10:35:06;;;;;;;;;;;;;;;16.89;46.47;100845.34;4940662;27;98098;-64
2022/10/10 10:37:36;;;;;;;;;;;;;;;16.79;46.61;100846.34;4948625;27;98033;-65
2022/10/10 10:40:44;;;;;;;;;;;;;;;16.67;46.64;100840.53;4967707;27;97950;-68
2022/10/10 10:43:16;;;;;;;;;;;;;;;16.59;46.78;100839.31;4978890;27;98191;-64
2022/10/10 10:46:11;;;;;;;;;;;;;;;16.54;46.75;100833.13;4965065;27;97982;-65
2022/10/10 10:48:53;;;;;;;;;;;;;;;16.50;46.63;100834.84;4945841;27;98094;-68
2022/10/10 10:51:39;;;;;;;;;;;;;;;16.55;46.45;100826.59;4945736;28;98408;-68
2022/10/10 10:54:21;;;;;;;;;;;;;;;16.67;46.34;100826.94;4978039;27;98079;-65
2022/10/10 10:57:19;;;;;;;;;;;;;;;16.85;46.07;100822.53;4965035;27;98294;-68
2022/10/10 11:00:08;;;;;;;;;;;;;;;17.04;45.90;100819.75;4964273;27;98154;-69
2022/10/10 11:03:00;;;;;;;;;;;;;;;17.19;45.91;100822.16;4971077;27;98057;-65
2022/10/10 11:05:32;;;;;;;;;;;;;;;17.36;45.64;100811.44;4948478;27;98081;-68
2022/10/10 11:07:58;;;;;;;;;;;;;;;17.62;45.42;100808.19;4969017;27;99542;-64
2022/10/10 11:10:34;;;;;;;;;;;;;;;18.02;44.93;100800.22;4975989;27;97744;-68
2022/10/10 11:13:10;;;;;;;;;;;;;;;18.70;44.13;100796.34;4980391;27;100025;-65
2022/10/10 11:16:02;;;;;;;;;;;;;;;19.41;43.58;100790.00;4964254;27;107148;-67
2022/10/10 11:18:37;;;;;;;;;;;;;;;19.90;43.20;100791.53;4955522;27;98075;-69
2022/10/10 11:21:21;;;;;;;;;;;;;;;19.93;43.56;100784.63;4963406;27;97932;-65
2022/10/10 11:24:03;;;;;;;;;;;;;;;19.73;44.15;100800.56;4971600;27;98624;-65
2022/10/10 11:26:36;;;;;;;;;;;;;;;19.66;44.25;100794.75;4973005;28;98372;-65
2022/10/10 11:29:20;;;;;;;;;;;;;;;19.94;43.82;100781.56;4957160;27;98014;-68
2022/10/10 11:32:14;;;;;;;;;;;;;;;20.16;43.71;100786.06;4953614;27;98265;-65
2022/10/10 11:35:18;;;;;;;;;;;;;;;20.00;44.24;100780.28;4979641;27;98488;-68
2022/10/10 11:37:47;;;;;;;;;;;;;;;20.12;43.95;100779.59;4961131;27;99830;-65
2022/10/10 11:40:52;;;;;;;;;;;;;;;20.40;43.81;100777.31;4953541;27;113617;-68
2022/10/10 11:43:50;;;;;;;;;;;;;;;20.84;43.29;100778.00;4977566;27;97959;-69
2022/10/10 11:46:43;;;;;;;;;;;;;;;20.90;43.39;100775.88;4974319;27;97969;-65
2022/10/10 11:49:15;;;;;;;;;;;;;;;21.14;43.16;100778.81;4990616;27;98556;-65
2022/10/10 11:51:57;;;;;;;;;;;;;;;21.17;43.27;100771.88;4967559;28;97848;-65
2022/10/10 11:54:39;;;;;;;;;;;;;;;21.20;43.48;100769.28;4969726;27;97919;-69
2022/10/10 11:57:09;;;;;;;;;;;;;;;21.42;43.17;100765.47;4984528;27;98404;-65
2022/10/10 11:59:46;;;;;;;;;;;;;;;21.41;43.48;100763.84;4964851;27;98133;-66
2022/10/10 12:02:30;;;;;;;;;;;;;;;21.45;43.45;100764.78;4971323;27;99560;-65
2022/10/10 12:04:58;;;;;;;;;;;;;;;21.35;43.83;100758.91;4977852;27;98128;-65
2022/10/10 12:07:42;;;;;;;;;;;;;;;21.24;43.98;100758.44;4955618;27;98151;-69
2022/10/10 12:10:13;;;;;;;;;;;;;;;21.18;44.13;100765.25;4960136;27;98269;-69
2022/10/10 12:12:43;;;;;;;;;;;;;;;21.05;44.32;100756.94;4947469;28;99907;-69
2022/10/10 12:15:13;;;;;;;;;;;;;;;21.11;44.26;100760.31;4949363;27;98247;-69
2022/10/10 12:17:44;;;;;;;;;;;;;;;21.41;43.93;100747.38;4942447;27;98295;-68
2022/10/10 12:20:30;;;;;;;;;;;;;;;21.36;44.07;100746.78;4955906;27;99853;-69
2022/10/10 12:23:23;;;;;;;;;;;;;;;21.11;44.45;100737.59;4991591;27;97958;-68
2022/10/10 12:25:50;;;;;;;;;;;;;;;21.01;44.62;100739.56;4968992;27;99032;-65
2022/10/10 12:28:16;;;;;;;;;;;;;;;20.88;44.74;100731.59;4965202;27;100728;-65
2022/10/10 12:31:04;;;;;;;;;;;;;;;20.77;44.75;100728.41;4994531;27;97885;-66
2022/10/10 12:33:30;;;;;;;;;;;;;;;20.65;44.77;100723.63;4977197;27;98477;-65
2022/10/10 12:36:15;;;;;;;;;;;;;;;20.48;45.12;100727.22;4975195;27;98027;-69
2022/10/10 12:39:05;;;;;;;;;;;;;;;20.22;45.23;100718.25;4971221;27;99076;-69
2022/10/10 12:41:49;;;;;;;;;;;;;;;19.99;45.50;100737.63;4964486;27;98109;-69
2022/10/10 12:44:42;;;;;;;;;;;;;;;19.89;45.43;100715.28;4989629;27;98081;-66
2022/10/10 12:47:14;;;;;;;;;;;;;;;19.87;45.42;100726.53;4971795;27;99768;-68
2022/10/10 12:49:54;;;;;;;;;;;;;;;19.78;45.57;100721.06;4972632;27;99915;-69
2022/10/10 12:52:21;;;;;;;;;;;;;;;19.66;45.66;100726.41;4956115;27;98069;-68
2022/10/10 12:54:47;;;;;;;;;;;;;;;19.51;45.64;100716.72;4960809;27;101668;-69
2022/10/10 12:57:16;;;;;;;;;;;;;;;19.45;45.77;100722.63;4952068;27;98009;-70
2022/10/10 12:59:42;;;;;;;;;;;;;;;19.43;45.56;100728.44;4979621;27;98395;-70
2022/10/10 13:02:27;;;;;;;;;;;;;;;19.83;45.03;100715.44;4957383;27;98120;-71
2022/10/10 13:04:57;;;;;;;;;;;;;;;19.85;45.24;100710.47;4961399;27;97907;-71